sensor_id;sensor_type;location;lat;lon;timestamp;P1;durP1;ratioP1;P2;durP2;ratioP2
24799;SDS011;12897;50.812;4.430;2023-04-12T00:02:24;7.05;;;2.15;;
24799;SDS011;12897;50.812;4.430;2023-04-12T00:04:52;6.20;;;2.12;;
24799;SDS011;12897;50.812;4.430;2023-04-12T00:07:23;6.55;;;1.92;;
24799;SDS011;12897;50.812;4.430;2023-04-12T00:09:50;8.45;;;2.30;;
24799;SDS011;12897;50.812;4.430;2023-04-12T00:12:18;7.55;;;1.95;;
24799;SDS011;12897;50.812;4.430;2023-04-12T00:14:46;3.98;;;1.50;;
24799;SDS011;12897;50.812;4.430;2023-04-12T00:17:13;6.55;;;1.77;;
24799;SDS011;12897;50.812;4.430;2023-04-12T00:19:41;4.65;;;1.67;;
24799;SDS011;12897;50.812;4.430;2023-04-12T00:22:09;4.58;;;1.67;;
24799;SDS011;12897;50.812;4.430;2023-04-12T00:24:37;5.85;;;2.10;;
24799;SDS011;12897;50.812;4.430;2023-04-12T00:27:06;6.08;;;1.87;;
24799;SDS011;12897;50.812;4.430;2023-04-12T00:29:34;5.08;;;1.75;;
24799;SDS011;12897;50.812;4.430;2023-04-12T00:32:01;5.10;;;1.80;;
24799;SDS011;12897;50.812;4.430;2023-04-12T00:34:30;6.83;;;1.82;;
24799;SDS011;12897;50.812;4.430;2023-04-12T00:36:58;3.92;;;1.42;;
24799;SDS011;12897;50.812;4.430;2023-04-12T00:39:26;5.47;;;1.65;;
24799;SDS011;12897;50.812;4.430;2023-04-12T00:41:54;4.92;;;1.62;;
24799;SDS011;12897;50.812;4.430;2023-04-12T00:47:10;6.47;;;1.70;;
24799;SDS011;12897;50.812;4.430;2023-04-12T00:49:37;7.33;;;2.12;;
24799;SDS011;12897;50.812;4.430;2023-04-12T00:52:07;5.75;;;1.80;;
24799;SDS011;12897;50.812;4.430;2023-04-12T00:54:36;8.75;;;2.02;;
24799;SDS011;12897;50.812;4.430;2023-04-12T00:57:04;6.17;;;1.65;;
24799;SDS011;12897;50.812;4.430;2023-04-12T00:59:32;5.72;;;1.77;;
24799;SDS011;12897;50.812;4.430;2023-04-12T01:01:59;8.80;;;1.82;;
24799;SDS011;12897;50.812;4.430;2023-04-12T01:04:27;5.50;;;2.08;;
24799;SDS011;12897;50.812;4.430;2023-04-12T01:07:01;6.30;;;2.00;;
24799;SDS011;12897;50.812;4.430;2023-04-12T01:09:44;5.33;;;2.22;;
24799;SDS011;12897;50.812;4.430;2023-04-12T01:12:40;8.35;;;1.70;;
24799;SDS011;12897;50.812;4.430;2023-04-12T01:15:23;9.53;;;1.85;;
24799;SDS011;12897;50.812;4.430;2023-04-12T01:17:56;8.20;;;2.37;;
24799;SDS011;12897;50.812;4.430;2023-04-12T01:20:32;5.62;;;1.85;;
24799;SDS011;12897;50.812;4.430;2023-04-12T01:26:02;6.42;;;1.70;;
24799;SDS011;12897;50.812;4.430;2023-04-12T01:28:33;6.60;;;1.98;;
24799;SDS011;12897;50.812;4.430;2023-04-12T01:31:02;10.13;;;2.45;;
24799;SDS011;12897;50.812;4.430;2023-04-12T01:33:34;9.43;;;2.22;;
24799;SDS011;12897;50.812;4.430;2023-04-12T01:36:05;10.82;;;1.77;;
24799;SDS011;12897;50.812;4.430;2023-04-12T01:38:37;12.20;;;2.10;;
24799;SDS011;12897;50.812;4.430;2023-04-12T01:41:07;6.67;;;1.90;;
24799;SDS011;12897;50.812;4.430;2023-04-12T01:43:41;6.00;;;2.20;;
24799;SDS011;12897;50.812;4.430;2023-04-12T01:46:11;4.90;;;1.90;;
24799;SDS011;12897;50.812;4.430;2023-04-12T01:48:43;8.10;;;1.92;;
24799;SDS011;12897;50.812;4.430;2023-04-12T01:51:13;9.85;;;2.20;;
24799;SDS011;12897;50.812;4.430;2023-04-12T01:53:44;9.33;;;2.00;;
24799;SDS011;12897;50.812;4.430;2023-04-12T01:56:22;6.12;;;2.15;;
24799;SDS011;12897;50.812;4.430;2023-04-12T01:58:52;5.58;;;2.00;;
24799;SDS011;12897;50.812;4.430;2023-04-12T02:01:22;7.00;;;1.80;;
24799;SDS011;12897;50.812;4.430;2023-04-12T02:03:50;7.47;;;1.98;;
24799;SDS011;12897;50.812;4.430;2023-04-12T02:06:18;6.35;;;2.15;;
24799;SDS011;12897;50.812;4.430;2023-04-12T02:08:47;3.87;;;1.50;;
24799;SDS011;12897;50.812;4.430;2023-04-12T02:11:14;4.00;;;1.62;;
24799;SDS011;12897;50.812;4.430;2023-04-12T02:13:42;7.78;;;1.92;;
24799;SDS011;12897;50.812;4.430;2023-04-12T02:16:09;4.92;;;1.80;;
24799;SDS011;12897;50.812;4.430;2023-04-12T02:18:38;8.15;;;1.80;;
24799;SDS011;12897;50.812;4.430;2023-04-12T02:21:14;5.25;;;1.80;;
24799;SDS011;12897;50.812;4.430;2023-04-12T02:23:42;3.87;;;1.70;;
24799;SDS011;12897;50.812;4.430;2023-04-12T02:26:10;5.83;;;1.77;;
24799;SDS011;12897;50.812;4.430;2023-04-12T02:28:38;5.50;;;1.75;;
24799;SDS011;12897;50.812;4.430;2023-04-12T02:31:05;6.78;;;2.10;;
24799;SDS011;12897;50.812;4.430;2023-04-12T02:33:33;6.50;;;1.92;;
24799;SDS011;12897;50.812;4.430;2023-04-12T02:36:00;6.00;;;2.05;;
24799;SDS011;12897;50.812;4.430;2023-04-12T02:38:28;7.85;;;2.33;;
24799;SDS011;12897;50.812;4.430;2023-04-12T02:40:56;4.25;;;1.82;;
24799;SDS011;12897;50.812;4.430;2023-04-12T02:43:23;7.03;;;2.17;;
24799;SDS011;12897;50.812;4.430;2023-04-12T02:45:51;6.97;;;2.25;;
24799;SDS011;12897;50.812;4.430;2023-04-12T02:48:18;7.42;;;2.40;;
24799;SDS011;12897;50.812;4.430;2023-04-12T02:50:46;7.70;;;2.08;;
24799;SDS011;12897;50.812;4.430;2023-04-12T02:53:14;6.97;;;1.98;;
24799;SDS011;12897;50.812;4.430;2023-04-12T02:55:42;6.17;;;2.27;;
24799;SDS011;12897;50.812;4.430;2023-04-12T02:58:09;3.85;;;1.85;;
24799;SDS011;12897;50.812;4.430;2023-04-12T03:00:37;9.73;;;2.15;;
24799;SDS011;12897;50.812;4.430;2023-04-12T03:03:06;7.70;;;2.20;;
24799;SDS011;12897;50.812;4.430;2023-04-12T03:05:34;6.17;;;1.82;;
24799;SDS011;12897;50.812;4.430;2023-04-12T03:08:02;4.47;;;1.98;;
24799;SDS011;12897;50.812;4.430;2023-04-12T03:10:30;5.95;;;1.75;;
24799;SDS011;12897;50.812;4.430;2023-04-12T03:12:58;7.00;;;1.70;;
24799;SDS011;12897;50.812;4.430;2023-04-12T03:15:26;5.42;;;1.77;;
24799;SDS011;12897;50.812;4.430;2023-04-12T03:17:54;7.08;;;1.67;;
24799;SDS011;12897;50.812;4.430;2023-04-12T03:20:21;4.00;;;1.52;;
24799;SDS011;12897;50.812;4.430;2023-04-12T03:22:54;4.22;;;1.70;;
24799;SDS011;12897;50.812;4.430;2023-04-12T03:25:21;6.33;;;1.80;;
24799;SDS011;12897;50.812;4.430;2023-04-12T03:27:50;5.03;;;1.47;;
24799;SDS011;12897;50.812;4.430;2023-04-12T03:30:17;5.65;;;2.00;;
24799;SDS011;12897;50.812;4.430;2023-04-12T03:32:45;6.40;;;1.52;;
24799;SDS011;12897;50.812;4.430;2023-04-12T03:35:12;6.20;;;1.42;;
24799;SDS011;12897;50.812;4.430;2023-04-12T03:37:40;5.37;;;1.77;;
24799;SDS011;12897;50.812;4.430;2023-04-12T03:40:09;4.97;;;1.60;;
24799;SDS011;12897;50.812;4.430;2023-04-12T03:42:36;5.85;;;1.80;;
24799;SDS011;12897;50.812;4.430;2023-04-12T03:45:04;3.85;;;1.30;;
24799;SDS011;12897;50.812;4.430;2023-04-12T03:47:32;6.17;;;2.05;;
24799;SDS011;12897;50.812;4.430;2023-04-12T03:50:03;5.70;;;1.82;;
24799;SDS011;12897;50.812;4.430;2023-04-12T03:52:32;7.20;;;1.57;;
24799;SDS011;12897;50.812;4.430;2023-04-12T03:55:00;3.17;;;1.32;;
24799;SDS011;12897;50.812;4.430;2023-04-12T03:57:28;4.75;;;1.30;;
24799;SDS011;12897;50.812;4.430;2023-04-12T03:59:55;2.55;;;1.15;;
24799;SDS011;12897;50.812;4.430;2023-04-12T04:02:23;5.83;;;1.27;;
24799;SDS011;12897;50.812;4.430;2023-04-12T04:04:52;2.15;;;1.32;;
24799;SDS011;12897;50.812;4.430;2023-04-12T04:07:20;3.70;;;1.40;;
24799;SDS011;12897;50.812;4.430;2023-04-12T04:09:48;5.15;;;1.67;;
24799;SDS011;12897;50.812;4.430;2023-04-12T04:12:15;2.70;;;1.25;;
24799;SDS011;12897;50.812;4.430;2023-04-12T04:14:43;3.20;;;1.30;;
24799;SDS011;12897;50.812;4.430;2023-04-12T04:17:10;5.10;;;1.20;;
24799;SDS011;12897;50.812;4.430;2023-04-12T04:19:39;7.62;;;1.65;;
24799;SDS011;12897;50.812;4.430;2023-04-12T04:22:07;4.92;;;1.20;;
24799;SDS011;12897;50.812;4.430;2023-04-12T04:24:34;4.70;;;1.42;;
24799;SDS011;12897;50.812;4.430;2023-04-12T04:27:04;2.80;;;1.32;;
24799;SDS011;12897;50.812;4.430;2023-04-12T04:29:32;2.37;;;1.20;;
24799;SDS011;12897;50.812;4.430;2023-04-12T04:32:02;2.83;;;1.23;;
24799;SDS011;12897;50.812;4.430;2023-04-12T04:34:30;1.55;;;1.10;;
24799;SDS011;12897;50.812;4.430;2023-04-12T04:36:57;4.03;;;1.05;;
24799;SDS011;12897;50.812;4.430;2023-04-12T04:39:25;3.05;;;1.30;;
24799;SDS011;12897;50.812;4.430;2023-04-12T04:41:53;3.50;;;1.42;;
24799;SDS011;12897;50.812;4.430;2023-04-12T04:44:20;4.22;;;1.30;;
24799;SDS011;12897;50.812;4.430;2023-04-12T04:46:48;1.32;;;0.90;;
24799;SDS011;12897;50.812;4.430;2023-04-12T04:49:16;3.30;;;1.20;;
24799;SDS011;12897;50.812;4.430;2023-04-12T04:51:44;3.17;;;1.45;;
24799;SDS011;12897;50.812;4.430;2023-04-12T04:54:11;1.85;;;1.00;;
24799;SDS011;12897;50.812;4.430;2023-04-12T04:56:39;4.33;;;1.60;;
24799;SDS011;12897;50.812;4.430;2023-04-12T04:59:06;3.87;;;1.80;;
24799;SDS011;12897;50.812;4.430;2023-04-12T05:01:34;3.22;;;1.25;;
24799;SDS011;12897;50.812;4.430;2023-04-12T05:04:02;2.62;;;1.25;;
24799;SDS011;12897;50.812;4.430;2023-04-12T05:06:29;2.98;;;1.15;;
24799;SDS011;12897;50.812;4.430;2023-04-12T05:08:58;2.22;;;1.37;;
24799;SDS011;12897;50.812;4.430;2023-04-12T05:11:26;3.40;;;1.27;;
24799;SDS011;12897;50.812;4.430;2023-04-12T05:13:53;6.72;;;2.52;;
24799;SDS011;12897;50.812;4.430;2023-04-12T05:16:21;2.10;;;1.35;;
24799;SDS011;12897;50.812;4.430;2023-04-12T05:18:49;3.15;;;1.50;;
24799;SDS011;12897;50.812;4.430;2023-04-12T05:21:16;3.20;;;1.50;;
24799;SDS011;12897;50.812;4.430;2023-04-12T05:23:45;4.58;;;1.70;;
24799;SDS011;12897;50.812;4.430;2023-04-12T05:26:18;4.80;;;1.90;;
24799;SDS011;12897;50.812;4.430;2023-04-12T05:28:46;8.00;;;1.92;;
24799;SDS011;12897;50.812;4.430;2023-04-12T05:31:14;7.03;;;1.80;;
24799;SDS011;12897;50.812;4.430;2023-04-12T05:33:41;5.55;;;1.80;;
24799;SDS011;12897;50.812;4.430;2023-04-12T05:36:10;6.35;;;2.00;;
24799;SDS011;12897;50.812;4.430;2023-04-12T05:38:37;8.80;;;1.98;;
24799;SDS011;12897;50.812;4.430;2023-04-12T05:41:05;8.55;;;1.92;;
24799;SDS011;12897;50.812;4.430;2023-04-12T05:43:32;6.33;;;2.20;;
24799;SDS011;12897;50.812;4.430;2023-04-12T05:46:02;7.40;;;2.43;;
24799;SDS011;12897;50.812;4.430;2023-04-12T05:48:36;6.17;;;2.10;;
24799;SDS011;12897;50.812;4.430;2023-04-12T05:51:04;5.25;;;1.92;;
24799;SDS011;12897;50.812;4.430;2023-04-12T05:53:31;8.88;;;2.55;;
24799;SDS011;12897;50.812;4.430;2023-04-12T05:55:59;10.10;;;1.90;;
24799;SDS011;12897;50.812;4.430;2023-04-12T05:58:26;10.13;;;2.60;;
24799;SDS011;12897;50.812;4.430;2023-04-12T06:00:54;6.78;;;2.33;;
24799;SDS011;12897;50.812;4.430;2023-04-12T06:03:22;7.87;;;2.62;;
24799;SDS011;12897;50.812;4.430;2023-04-12T06:05:50;9.50;;;2.47;;
24799;SDS011;12897;50.812;4.430;2023-04-12T06:08:18;7.35;;;2.50;;
24799;SDS011;12897;50.812;4.430;2023-04-12T06:10:46;11.65;;;2.62;;
24799;SDS011;12897;50.812;4.430;2023-04-12T06:13:14;9.68;;;2.40;;
24799;SDS011;12897;50.812;4.430;2023-04-12T06:15:42;14.30;;;2.62;;
24799;SDS011;12897;50.812;4.430;2023-04-12T06:18:09;12.78;;;2.52;;
24799;SDS011;12897;50.812;4.430;2023-04-12T06:20:38;11.08;;;2.72;;
24799;SDS011;12897;50.812;4.430;2023-04-12T06:23:07;12.55;;;3.27;;
24799;SDS011;12897;50.812;4.430;2023-04-12T06:25:37;11.15;;;2.67;;
24799;SDS011;12897;50.812;4.430;2023-04-12T06:30:31;12.93;;;2.62;;
24799;SDS011;12897;50.812;4.430;2023-04-12T06:33:00;12.53;;;2.75;;
24799;SDS011;12897;50.812;4.430;2023-04-12T06:37:57;12.15;;;2.95;;
24799;SDS011;12897;50.812;4.430;2023-04-12T06:40:26;15.45;;;3.22;;
24799;SDS011;12897;50.812;4.430;2023-04-12T06:42:56;16.85;;;2.98;;
24799;SDS011;12897;50.812;4.430;2023-04-12T06:45:23;19.05;;;3.20;;
24799;SDS011;12897;50.812;4.430;2023-04-12T06:47:52;23.25;;;5.17;;
24799;SDS011;12897;50.812;4.430;2023-04-12T06:50:22;14.53;;;2.93;;
24799;SDS011;12897;50.812;4.430;2023-04-12T06:52:50;10.23;;;2.42;;
24799;SDS011;12897;50.812;4.430;2023-04-12T06:55:18;13.43;;;2.45;;
24799;SDS011;12897;50.812;4.430;2023-04-12T06:57:47;10.68;;;2.25;;
24799;SDS011;12897;50.812;4.430;2023-04-12T07:02:43;18.82;;;2.92;;
24799;SDS011;12897;50.812;4.430;2023-04-12T07:05:11;12.45;;;2.52;;
24799;SDS011;12897;50.812;4.430;2023-04-12T07:07:39;16.00;;;2.75;;
24799;SDS011;12897;50.812;4.430;2023-04-12T07:10:07;16.67;;;2.80;;
24799;SDS011;12897;50.812;4.430;2023-04-12T07:12:35;14.83;;;2.45;;
24799;SDS011;12897;50.812;4.430;2023-04-12T07:15:03;13.75;;;2.40;;
24799;SDS011;12897;50.812;4.430;2023-04-12T07:17:32;19.70;;;2.67;;
24799;SDS011;12897;50.812;4.430;2023-04-12T07:19:59;10.50;;;2.47;;
24799;SDS011;12897;50.812;4.430;2023-04-12T07:22:27;14.90;;;2.67;;
24799;SDS011;12897;50.812;4.430;2023-04-12T07:24:54;13.80;;;2.52;;
24799;SDS011;12897;50.812;4.430;2023-04-12T07:27:22;15.88;;;2.60;;
24799;SDS011;12897;50.812;4.430;2023-04-12T07:29:53;12.43;;;2.08;;
24799;SDS011;12897;50.812;4.430;2023-04-12T07:32:23;11.70;;;2.05;;
24799;SDS011;12897;50.812;4.430;2023-04-12T07:34:50;12.37;;;2.80;;
24799;SDS011;12897;50.812;4.430;2023-04-12T07:37:18;20.50;;;3.12;;
24799;SDS011;12897;50.812;4.430;2023-04-12T07:39:47;12.88;;;2.75;;
24799;SDS011;12897;50.812;4.430;2023-04-12T07:42:16;12.80;;;2.70;;
24799;SDS011;12897;50.812;4.430;2023-04-12T07:44:44;16.20;;;2.42;;
24799;SDS011;12897;50.812;4.430;2023-04-12T07:47:11;14.28;;;2.67;;
24799;SDS011;12897;50.812;4.430;2023-04-12T07:49:39;17.80;;;2.67;;
24799;SDS011;12897;50.812;4.430;2023-04-12T07:52:06;14.10;;;2.72;;
24799;SDS011;12897;50.812;4.430;2023-04-12T07:54:34;13.60;;;2.22;;
24799;SDS011;12897;50.812;4.430;2023-04-12T07:57:02;15.05;;;2.90;;
24799;SDS011;12897;50.812;4.430;2023-04-12T07:59:31;14.03;;;3.25;;
24799;SDS011;12897;50.812;4.430;2023-04-12T08:01:59;13.93;;;2.85;;
24799;SDS011;12897;50.812;4.430;2023-04-12T08:04:27;12.10;;;2.70;;
24799;SDS011;12897;50.812;4.430;2023-04-12T08:06:55;16.87;;;2.50;;
24799;SDS011;12897;50.812;4.430;2023-04-12T08:09:23;16.00;;;3.87;;
24799;SDS011;12897;50.812;4.430;2023-04-12T08:11:50;14.47;;;3.35;;
24799;SDS011;12897;50.812;4.430;2023-04-12T08:14:19;12.85;;;2.47;;
24799;SDS011;12897;50.812;4.430;2023-04-12T08:16:47;12.70;;;2.90;;
24799;SDS011;12897;50.812;4.430;2023-04-12T08:19:14;16.05;;;2.87;;
24799;SDS011;12897;50.812;4.430;2023-04-12T08:21:43;15.28;;;3.70;;
24799;SDS011;12897;50.812;4.430;2023-04-12T08:24:11;19.95;;;2.80;;
24799;SDS011;12897;50.812;4.430;2023-04-12T08:26:39;22.02;;;3.25;;
24799;SDS011;12897;50.812;4.430;2023-04-12T08:29:07;12.63;;;2.55;;
24799;SDS011;12897;50.812;4.430;2023-04-12T08:31:34;12.65;;;2.83;;
24799;SDS011;12897;50.812;4.430;2023-04-12T08:34:03;16.35;;;3.20;;
24799;SDS011;12897;50.812;4.430;2023-04-12T08:36:31;15.48;;;3.15;;
24799;SDS011;12897;50.812;4.430;2023-04-12T08:38:59;17.02;;;2.90;;
24799;SDS011;12897;50.812;4.430;2023-04-12T08:41:27;24.07;;;3.10;;
24799;SDS011;12897;50.812;4.430;2023-04-12T08:43:55;19.48;;;2.98;;
24799;SDS011;12897;50.812;4.430;2023-04-12T08:46:24;18.05;;;4.12;;
24799;SDS011;12897;50.812;4.430;2023-04-12T08:51:23;21.05;;;3.45;;
24799;SDS011;12897;50.812;4.430;2023-04-12T08:53:51;16.57;;;3.10;;
24799;SDS011;12897;50.812;4.430;2023-04-12T08:56:19;22.55;;;3.87;;
24799;SDS011;12897;50.812;4.430;2023-04-12T08:58:50;17.62;;;3.90;;
24799;SDS011;12897;50.812;4.430;2023-04-12T09:01:19;19.45;;;3.20;;
24799;SDS011;12897;50.812;4.430;2023-04-12T09:03:47;16.55;;;3.52;;
24799;SDS011;12897;50.812;4.430;2023-04-12T09:06:14;18.55;;;3.37;;
24799;SDS011;12897;50.812;4.430;2023-04-12T09:08:52;19.50;;;3.65;;
24799;SDS011;12897;50.812;4.430;2023-04-12T09:11:22;22.40;;;3.37;;
24799;SDS011;12897;50.812;4.430;2023-04-12T09:13:51;21.50;;;3.30;;
24799;SDS011;12897;50.812;4.430;2023-04-12T09:19:07;23.55;;;3.50;;
24799;SDS011;12897;50.812;4.430;2023-04-12T09:21:35;19.70;;;3.42;;
24799;SDS011;12897;50.812;4.430;2023-04-12T09:24:03;19.45;;;3.27;;
24799;SDS011;12897;50.812;4.430;2023-04-12T09:26:37;22.67;;;2.70;;
24799;SDS011;12897;50.812;4.430;2023-04-12T09:29:05;11.68;;;2.83;;
24799;SDS011;12897;50.812;4.430;2023-04-12T09:34:07;12.95;;;3.00;;
24799;SDS011;12897;50.812;4.430;2023-04-12T09:36:39;22.32;;;3.33;;
24799;SDS011;12897;50.812;4.430;2023-04-12T09:39:08;19.12;;;2.92;;
24799;SDS011;12897;50.812;4.430;2023-04-12T09:41:36;17.27;;;3.60;;
24799;SDS011;12897;50.812;4.430;2023-04-12T09:44:03;24.45;;;3.70;;
24799;SDS011;12897;50.812;4.430;2023-04-12T09:46:31;19.15;;;3.17;;
24799;SDS011;12897;50.812;4.430;2023-04-12T09:48:59;21.90;;;3.15;;
24799;SDS011;12897;50.812;4.430;2023-04-12T09:51:31;18.92;;;3.47;;
24799;SDS011;12897;50.812;4.430;2023-04-12T09:54:03;24.80;;;3.52;;
24799;SDS011;12897;50.812;4.430;2023-04-12T09:56:34;18.70;;;3.70;;
24799;SDS011;12897;50.812;4.430;2023-04-12T09:59:07;17.73;;;2.60;;
24799;SDS011;12897;50.812;4.430;2023-04-12T10:01:35;24.52;;;4.10;;
24799;SDS011;12897;50.812;4.430;2023-04-12T10:06:34;20.88;;;2.87;;
24799;SDS011;12897;50.812;4.430;2023-04-12T10:09:03;18.75;;;4.35;;
24799;SDS011;12897;50.812;4.430;2023-04-12T10:11:33;18.40;;;3.65;;
24799;SDS011;12897;50.812;4.430;2023-04-12T10:14:01;21.75;;;5.92;;
24799;SDS011;12897;50.812;4.430;2023-04-12T10:16:29;13.43;;;3.00;;
24799;SDS011;12897;50.812;4.430;2023-04-12T10:19:02;18.57;;;4.12;;
24799;SDS011;12897;50.812;4.430;2023-04-12T10:21:30;21.33;;;3.35;;
24799;SDS011;12897;50.812;4.430;2023-04-12T10:23:57;15.85;;;3.15;;
24799;SDS011;12897;50.812;4.430;2023-04-12T10:26:26;17.50;;;3.17;;
24799;SDS011;12897;50.812;4.430;2023-04-12T10:31:54;16.32;;;3.58;;
24799;SDS011;12897;50.812;4.430;2023-04-12T10:34:26;18.62;;;3.85;;
24799;SDS011;12897;50.812;4.430;2023-04-12T10:36:58;17.15;;;3.87;;
24799;SDS011;12897;50.812;4.430;2023-04-12T10:39:40;12.55;;;3.27;;
24799;SDS011;12897;50.812;4.430;2023-04-12T10:42:21;17.17;;;4.22;;
24799;SDS011;12897;50.812;4.430;2023-04-12T10:44:52;24.63;;;3.33;;
24799;SDS011;12897;50.812;4.430;2023-04-12T10:50:25;14.80;;;2.77;;
24799;SDS011;12897;50.812;4.430;2023-04-12T10:53:19;17.00;;;3.42;;
24799;SDS011;12897;50.812;4.430;2023-04-12T10:55:43;20.25;;;3.15;;
24799;SDS011;12897;50.812;4.430;2023-04-12T10:58:53;15.03;;;3.35;;
24799;SDS011;12897;50.812;4.430;2023-04-12T11:03:30;16.42;;;3.30;;
24799;SDS011;12897;50.812;4.430;2023-04-12T11:05:58;21.35;;;3.40;;
24799;SDS011;12897;50.812;4.430;2023-04-12T11:08:31;19.95;;;3.75;;
24799;SDS011;12897;50.812;4.430;2023-04-12T11:11:01;20.17;;;3.60;;
24799;SDS011;12897;50.812;4.430;2023-04-12T11:13:34;19.35;;;3.15;;
24799;SDS011;12897;50.812;4.430;2023-04-12T11:16:04;18.57;;;3.10;;
24799;SDS011;12897;50.812;4.430;2023-04-12T11:18:32;14.87;;;2.65;;
24799;SDS011;12897;50.812;4.430;2023-04-12T11:21:04;14.65;;;2.90;;
24799;SDS011;12897;50.812;4.430;2023-04-12T11:23:34;18.00;;;2.52;;
24799;SDS011;12897;50.812;4.430;2023-04-12T11:28:30;12.88;;;3.27;;
24799;SDS011;12897;50.812;4.430;2023-04-12T11:30:59;20.55;;;3.15;;
24799;SDS011;12897;50.812;4.430;2023-04-12T11:33:34;24.85;;;4.22;;
24799;SDS011;12897;50.812;4.430;2023-04-12T11:36:05;27.13;;;4.30;;
24799;SDS011;12897;50.812;4.430;2023-04-12T11:38:38;20.72;;;3.80;;
24799;SDS011;12897;50.812;4.430;2023-04-12T11:41:06;25.50;;;4.12;;
24799;SDS011;12897;50.812;4.430;2023-04-12T11:43:35;23.77;;;3.92;;
24799;SDS011;12897;50.812;4.430;2023-04-12T11:46:03;117.67;;;13.75;;
24799;SDS011;12897;50.812;4.430;2023-04-12T11:48:32;60.90;;;9.77;;
24799;SDS011;12897;50.812;4.430;2023-04-12T11:51:17;12.28;;;3.37;;
24799;SDS011;12897;50.812;4.430;2023-04-12T11:53:54;20.62;;;4.22;;
24799;SDS011;12897;50.812;4.430;2023-04-12T11:58:51;12.45;;;2.33;;
24799;SDS011;12897;50.812;4.430;2023-04-12T12:01:19;24.30;;;3.35;;
24799;SDS011;12897;50.812;4.430;2023-04-12T12:03:49;10.72;;;2.12;;
24799;SDS011;12897;50.812;4.430;2023-04-12T12:06:17;8.60;;;1.80;;
24799;SDS011;12897;50.812;4.430;2023-04-12T12:08:47;11.83;;;2.02;;
24799;SDS011;12897;50.812;4.430;2023-04-12T12:11:19;44.67;;;5.17;;
24799;SDS011;12897;50.812;4.430;2023-04-12T12:13:51;12.35;;;2.62;;
24799;SDS011;12897;50.812;4.430;2023-04-12T12:16:27;46.77;;;6.35;;
24799;SDS011;12897;50.812;4.430;2023-04-12T12:18:56;23.10;;;3.47;;
24799;SDS011;12897;50.812;4.430;2023-04-12T12:21:24;22.65;;;3.35;;
24799;SDS011;12897;50.812;4.430;2023-04-12T12:23:52;14.68;;;2.65;;
24799;SDS011;12897;50.812;4.430;2023-04-12T12:26:26;25.80;;;4.42;;
24799;SDS011;12897;50.812;4.430;2023-04-12T12:28:57;16.57;;;3.37;;
24799;SDS011;12897;50.812;4.430;2023-04-12T12:31:26;25.85;;;3.22;;
24799;SDS011;12897;50.812;4.430;2023-04-12T12:33:56;13.10;;;2.83;;
24799;SDS011;12897;50.812;4.430;2023-04-12T12:36:30;26.87;;;4.10;;
24799;SDS011;12897;50.812;4.430;2023-04-12T12:39:05;54.73;;;7.10;;
24799;SDS011;12897;50.812;4.430;2023-04-12T12:41:34;13.45;;;2.37;;
24799;SDS011;12897;50.812;4.430;2023-04-12T12:44:03;13.18;;;2.10;;
24799;SDS011;12897;50.812;4.430;2023-04-12T12:46:32;10.43;;;2.52;;
24799;SDS011;12897;50.812;4.430;2023-04-12T12:49:00;7.30;;;1.50;;
24799;SDS011;12897;50.812;4.430;2023-04-12T12:51:28;7.25;;;1.90;;
24799;SDS011;12897;50.812;4.430;2023-04-12T12:53:56;4.70;;;1.40;;
24799;SDS011;12897;50.812;4.430;2023-04-12T12:56:23;7.28;;;1.60;;
24799;SDS011;12897;50.812;4.430;2023-04-12T12:58:51;5.80;;;1.40;;
24799;SDS011;12897;50.812;4.430;2023-04-12T13:01:19;6.97;;;1.50;;
24799;SDS011;12897;50.812;4.430;2023-04-12T13:03:47;6.28;;;1.35;;
24799;SDS011;12897;50.812;4.430;2023-04-12T13:06:15;6.20;;;1.30;;
24799;SDS011;12897;50.812;4.430;2023-04-12T13:08:42;8.10;;;1.70;;
24799;SDS011;12897;50.812;4.430;2023-04-12T13:11:10;5.67;;;1.52;;
24799;SDS011;12897;50.812;4.430;2023-04-12T13:13:37;4.90;;;1.42;;
24799;SDS011;12897;50.812;4.430;2023-04-12T13:16:05;8.43;;;1.40;;
24799;SDS011;12897;50.812;4.430;2023-04-12T13:18:37;8.08;;;1.35;;
24799;SDS011;12897;50.812;4.430;2023-04-12T13:21:04;5.15;;;1.52;;
24799;SDS011;12897;50.812;4.430;2023-04-12T13:23:32;8.53;;;1.47;;
24799;SDS011;12897;50.812;4.430;2023-04-12T13:26:02;5.87;;;1.47;;
24799;SDS011;12897;50.812;4.430;2023-04-12T13:28:33;7.83;;;1.52;;
24799;SDS011;12897;50.812;4.430;2023-04-12T13:31:01;6.97;;;1.27;;
24799;SDS011;12897;50.812;4.430;2023-04-12T13:33:29;7.72;;;1.47;;
24799;SDS011;12897;50.812;4.430;2023-04-12T13:35:57;17.85;;;2.70;;
24799;SDS011;12897;50.812;4.430;2023-04-12T13:38:24;13.15;;;2.90;;
24799;SDS011;12897;50.812;4.430;2023-04-12T13:40:52;11.83;;;2.12;;
24799;SDS011;12897;50.812;4.430;2023-04-12T13:43:21;16.33;;;2.67;;
24799;SDS011;12897;50.812;4.430;2023-04-12T13:45:49;7.90;;;1.75;;
24799;SDS011;12897;50.812;4.430;2023-04-12T13:48:17;16.40;;;3.02;;
24799;SDS011;12897;50.812;4.430;2023-04-12T13:50:45;19.37;;;2.83;;
24799;SDS011;12897;50.812;4.430;2023-04-12T13:53:14;61.25;;;8.78;;
24799;SDS011;12897;50.812;4.430;2023-04-12T13:55:41;25.15;;;3.35;;
24799;SDS011;12897;50.812;4.430;2023-04-12T13:58:14;20.55;;;3.67;;
24799;SDS011;12897;50.812;4.430;2023-04-12T14:00:43;27.73;;;2.92;;
24799;SDS011;12897;50.812;4.430;2023-04-12T14:03:11;19.67;;;3.40;;
24799;SDS011;12897;50.812;4.430;2023-04-12T14:05:40;17.98;;;2.08;;
24799;SDS011;12897;50.812;4.430;2023-04-12T14:08:09;5.73;;;1.43;;
24799;SDS011;12897;50.812;4.430;2023-04-12T14:10:37;6.37;;;1.62;;
24799;SDS011;12897;50.812;4.430;2023-04-12T14:13:04;6.53;;;1.65;;
24799;SDS011;12897;50.812;4.430;2023-04-12T14:15:32;8.90;;;1.85;;
24799;SDS011;12897;50.812;4.430;2023-04-12T14:18:00;17.12;;;2.37;;
24799;SDS011;12897;50.812;4.430;2023-04-12T14:20:27;11.08;;;2.22;;
24799;SDS011;12897;50.812;4.430;2023-04-12T14:22:57;13.20;;;2.95;;
24799;SDS011;12897;50.812;4.430;2023-04-12T14:25:24;8.75;;;2.12;;
24799;SDS011;12897;50.812;4.430;2023-04-12T14:27:52;11.38;;;1.92;;
24799;SDS011;12897;50.812;4.430;2023-04-12T14:30:22;8.03;;;1.98;;
24799;SDS011;12897;50.812;4.430;2023-04-12T14:32:51;8.33;;;1.70;;
24799;SDS011;12897;50.812;4.430;2023-04-12T14:35:20;7.60;;;1.60;;
24799;SDS011;12897;50.812;4.430;2023-04-12T14:37:48;5.55;;;1.45;;
24799;SDS011;12897;50.812;4.430;2023-04-12T14:40:16;9.60;;;1.40;;
24799;SDS011;12897;50.812;4.430;2023-04-12T14:42:44;6.53;;;1.40;;
24799;SDS011;12897;50.812;4.430;2023-04-12T14:45:12;4.42;;;1.30;;
24799;SDS011;12897;50.812;4.430;2023-04-12T14:47:40;8.28;;;1.57;;
24799;SDS011;12897;50.812;4.430;2023-04-12T14:50:07;8.25;;;1.57;;
24799;SDS011;12897;50.812;4.430;2023-04-12T14:52:35;6.42;;;1.55;;
24799;SDS011;12897;50.812;4.430;2023-04-12T14:55:04;8.20;;;1.90;;
24799;SDS011;12897;50.812;4.430;2023-04-12T14:57:33;4.97;;;1.33;;
24799;SDS011;12897;50.812;4.430;2023-04-12T15:00:01;9.43;;;1.77;;
24799;SDS011;12897;50.812;4.430;2023-04-12T15:02:30;7.25;;;1.55;;
24799;SDS011;12897;50.812;4.430;2023-04-12T15:04:58;6.97;;;1.60;;
24799;SDS011;12897;50.812;4.430;2023-04-12T15:07:27;9.37;;;1.90;;
24799;SDS011;12897;50.812;4.430;2023-04-12T15:09:55;5.75;;;1.87;;
24799;SDS011;12897;50.812;4.430;2023-04-12T15:12:24;7.30;;;1.80;;
24799;SDS011;12897;50.812;4.430;2023-04-12T15:14:54;9.83;;;1.55;;
24799;SDS011;12897;50.812;4.430;2023-04-12T15:17:22;7.78;;;2.15;;
24799;SDS011;12897;50.812;4.430;2023-04-12T15:19:49;5.80;;;1.80;;
24799;SDS011;12897;50.812;4.430;2023-04-12T15:22:17;7.60;;;1.85;;
24799;SDS011;12897;50.812;4.430;2023-04-12T15:24:44;5.90;;;1.30;;
24799;SDS011;12897;50.812;4.430;2023-04-12T15:27:12;6.35;;;1.95;;
24799;SDS011;12897;50.812;4.430;2023-04-12T15:29:40;8.98;;;1.75;;